sensor_id;sensor_type;location;lat;lon;timestamp;P1;durP1;ratioP1;P2;durP2;ratioP2
63112;SDS011;49206;48.020;21.378;2023-04-03T00:00:34;1.80;;;1.70;;
63112;SDS011;49206;48.020;21.378;2023-04-03T00:01:37;1.95;;;1.60;;
63112;SDS011;49206;48.020;21.378;2023-04-03T00:02:40;1.70;;;1.60;;
63112;SDS011;49206;48.020;21.378;2023-04-03T00:03:43;2.15;;;1.42;;
63112;SDS011;49206;48.020;21.378;2023-04-03T00:04:45;2.03;;;1.83;;
63112;SDS011;49206;48.020;21.378;2023-04-03T00:05:47;1.55;;;1.45;;
63112;SDS011;49206;48.020;21.378;2023-04-03T00:06:50;1.73;;;1.63;;
63112;SDS011;49206;48.020;21.378;2023-04-03T00:07:53;1.60;;;1.52;;
63112;SDS011;49206;48.020;21.378;2023-04-03T00:08:55;1.90;;;1.67;;
63112;SDS011;49206;48.020;21.378;2023-04-03T00:09:58;1.67;;;1.58;;
63112;SDS011;49206;48.020;21.378;2023-04-03T00:11:00;1.40;;;1.30;;
63112;SDS011;49206;48.020;21.378;2023-04-03T00:12:04;1.65;;;1.52;;
63112;SDS011;49206;48.020;21.378;2023-04-03T00:13:06;2.35;;;1.83;;
63112;SDS011;49206;48.020;21.378;2023-04-03T00:14:08;1.58;;;1.48;;
63112;SDS011;49206;48.020;21.378;2023-04-03T00:15:10;1.75;;;1.65;;
63112;SDS011;49206;48.020;21.378;2023-04-03T00:16:13;1.98;;;1.88;;
63112;SDS011;49206;48.020;21.378;2023-04-03T00:17:15;2.00;;;1.60;;
63112;SDS011;49206;48.020;21.378;2023-04-03T00:18:18;2.92;;;2.05;;
63112;SDS011;49206;48.020;21.378;2023-04-03T00:19:20;1.40;;;1.40;;
63112;SDS011;49206;48.020;21.378;2023-04-03T00:20:22;1.75;;;1.60;;
63112;SDS011;49206;48.020;21.378;2023-04-03T00:21:25;1.70;;;1.48;;
63112;SDS011;49206;48.020;21.378;2023-04-03T00:22:27;2.40;;;2.17;;
63112;SDS011;49206;48.020;21.378;2023-04-03T00:23:33;1.50;;;1.50;;
63112;SDS011;49206;48.020;21.378;2023-04-03T00:24:35;1.83;;;1.73;;
63112;SDS011;49206;48.020;21.378;2023-04-03T00:25:38;1.63;;;1.52;;
63112;SDS011;49206;48.020;21.378;2023-04-03T00:26:40;3.35;;;1.60;;
63112;SDS011;49206;48.020;21.378;2023-04-03T00:27:42;1.73;;;1.63;;
63112;SDS011;49206;48.020;21.378;2023-04-03T00:28:45;1.90;;;1.80;;
63112;SDS011;49206;48.020;21.378;2023-04-03T00:29:47;3.05;;;1.67;;
63112;SDS011;49206;48.020;21.378;2023-04-03T00:30:50;1.60;;;1.50;;
63112;SDS011;49206;48.020;21.378;2023-04-03T00:31:52;4.07;;;1.60;;
63112;SDS011;49206;48.020;21.378;2023-04-03T00:32:55;2.63;;;1.70;;
63112;SDS011;49206;48.020;21.378;2023-04-03T00:33:57;1.95;;;1.73;;
63112;SDS011;49206;48.020;21.378;2023-04-03T00:35:00;1.92;;;1.83;;
63112;SDS011;49206;48.020;21.378;2023-04-03T00:36:05;2.25;;;1.88;;
63112;SDS011;49206;48.020;21.378;2023-04-03T00:37:08;1.83;;;1.58;;
63112;SDS011;49206;48.020;21.378;2023-04-03T00:38:10;2.28;;;1.88;;
63112;SDS011;49206;48.020;21.378;2023-04-03T00:39:13;1.70;;;1.60;;
63112;SDS011;49206;48.020;21.378;2023-04-03T00:40:15;2.00;;;1.77;;
63112;SDS011;49206;48.020;21.378;2023-04-03T00:41:18;1.70;;;1.60;;
63112;SDS011;49206;48.020;21.378;2023-04-03T00:42:20;1.65;;;1.55;;
63112;SDS011;49206;48.020;21.378;2023-04-03T00:43:23;2.10;;;1.80;;
63112;SDS011;49206;48.020;21.378;2023-04-03T00:45:39;1.77;;;1.67;;
63112;SDS011;49206;48.020;21.378;2023-04-03T00:46:42;2.67;;;2.10;;
63112;SDS011;49206;48.020;21.378;2023-04-03T00:47:45;1.88;;;1.77;;
63112;SDS011;49206;48.020;21.378;2023-04-03T00:48:48;1.98;;;1.85;;
63112;SDS011;49206;48.020;21.378;2023-04-03T00:49:50;2.38;;;1.90;;
63112;SDS011;49206;48.020;21.378;2023-04-03T00:50:54;1.77;;;1.65;;
63112;SDS011;49206;48.020;21.378;2023-04-03T00:51:56;1.90;;;1.80;;
63112;SDS011;49206;48.020;21.378;2023-04-03T00:53:02;1.77;;;1.67;;
63112;SDS011;49206;48.020;21.378;2023-04-03T00:54:05;1.75;;;1.65;;
63112;SDS011;49206;48.020;21.378;2023-04-03T00:55:08;1.80;;;1.55;;
63112;SDS011;49206;48.020;21.378;2023-04-03T00:56:12;2.17;;;2.08;;
63112;SDS011;49206;48.020;21.378;2023-04-03T00:57:16;1.90;;;1.77;;
63112;SDS011;49206;48.020;21.378;2023-04-03T00:58:20;1.98;;;1.88;;
63112;SDS011;49206;48.020;21.378;2023-04-03T01:00:28;2.65;;;1.92;;
63112;SDS011;49206;48.020;21.378;2023-04-03T01:01:30;2.35;;;2.10;;
63112;SDS011;49206;48.020;21.378;2023-04-03T01:02:33;1.90;;;1.75;;
63112;SDS011;49206;48.020;21.378;2023-04-03T01:03:36;2.13;;;1.90;;
63112;SDS011;49206;48.020;21.378;2023-04-03T01:04:40;1.75;;;1.65;;
63112;SDS011;49206;48.020;21.378;2023-04-03T01:05:43;2.30;;;2.03;;
63112;SDS011;49206;48.020;21.378;2023-04-03T01:06:46;2.00;;;1.90;;
63112;SDS011;49206;48.020;21.378;2023-04-03T01:07:48;2.10;;;1.90;;
63112;SDS011;49206;48.020;21.378;2023-04-03T01:08:51;2.05;;;1.85;;
63112;SDS011;49206;48.020;21.378;2023-04-03T01:09:57;2.47;;;2.03;;
63112;SDS011;49206;48.020;21.378;2023-04-03T01:11:00;2.35;;;2.15;;
63112;SDS011;49206;48.020;21.378;2023-04-03T01:12:20;2.17;;;1.98;;
63112;SDS011;49206;48.020;21.378;2023-04-03T01:13:24;1.98;;;1.70;;
63112;SDS011;49206;48.020;21.378;2023-04-03T01:15:29;1.88;;;1.77;;
63112;SDS011;49206;48.020;21.378;2023-04-03T01:16:37;1.92;;;1.83;;
63112;SDS011;49206;48.020;21.378;2023-04-03T01:17:47;2.13;;;1.92;;
63112;SDS011;49206;48.020;21.378;2023-04-03T01:18:50;1.65;;;1.60;;
63112;SDS011;49206;48.020;21.378;2023-04-03T01:19:57;2.08;;;1.90;;
63112;SDS011;49206;48.020;21.378;2023-04-03T01:22:19;1.85;;;1.75;;
63112;SDS011;49206;48.020;21.378;2023-04-03T01:24:57;1.83;;;1.73;;
63112;SDS011;49206;48.020;21.378;2023-04-03T01:26:00;2.70;;;1.77;;
63112;SDS011;49206;48.020;21.378;2023-04-03T01:27:03;1.88;;;1.77;;
63112;SDS011;49206;48.020;21.378;2023-04-03T01:28:07;1.88;;;1.77;;
63112;SDS011;49206;48.020;21.378;2023-04-03T01:29:09;2.10;;;2.00;;
63112;SDS011;49206;48.020;21.378;2023-04-03T01:30:11;2.05;;;1.95;;
63112;SDS011;49206;48.020;21.378;2023-04-03T01:32:23;1.92;;;1.83;;
63112;SDS011;49206;48.020;21.378;2023-04-03T01:33:26;1.58;;;1.48;;
63112;SDS011;49206;48.020;21.378;2023-04-03T01:34:29;2.35;;;2.15;;
63112;SDS011;49206;48.020;21.378;2023-04-03T01:35:32;1.75;;;1.65;;
63112;SDS011;49206;48.020;21.378;2023-04-03T01:36:35;1.95;;;1.80;;
63112;SDS011;49206;48.020;21.378;2023-04-03T01:37:37;2.28;;;2.08;;
63112;SDS011;49206;48.020;21.378;2023-04-03T01:38:40;2.00;;;1.90;;
63112;SDS011;49206;48.020;21.378;2023-04-03T01:39:43;2.20;;;2.00;;
63112;SDS011;49206;48.020;21.378;2023-04-03T01:40:46;1.80;;;1.70;;
63112;SDS011;49206;48.020;21.378;2023-04-03T01:41:48;1.58;;;1.48;;
63112;SDS011;49206;48.020;21.378;2023-04-03T01:42:57;1.65;;;1.55;;
63112;SDS011;49206;48.020;21.378;2023-04-03T01:43:59;2.65;;;2.45;;
63112;SDS011;49206;48.020;21.378;2023-04-03T01:45:02;1.90;;;1.80;;
63112;SDS011;49206;48.020;21.378;2023-04-03T01:46:04;5.97;;;2.20;;
63112;SDS011;49206;48.020;21.378;2023-04-03T01:47:07;1.90;;;1.80;;
63112;SDS011;49206;48.020;21.378;2023-04-03T01:48:10;2.15;;;2.03;;
63112;SDS011;49206;48.020;21.378;2023-04-03T01:49:13;1.73;;;1.63;;
63112;SDS011;49206;48.020;21.378;2023-04-03T01:50:17;2.33;;;1.67;;
63112;SDS011;49206;48.020;21.378;2023-04-03T01:51:22;2.03;;;1.67;;
63112;SDS011;49206;48.020;21.378;2023-04-03T01:52:27;2.10;;;1.67;;
63112;SDS011;49206;48.020;21.378;2023-04-03T01:53:29;1.85;;;1.75;;
63112;SDS011;49206;48.020;21.378;2023-04-03T01:54:34;1.58;;;1.48;;
63112;SDS011;49206;48.020;21.378;2023-04-03T01:55:38;2.08;;;1.88;;
63112;SDS011;49206;48.020;21.378;2023-04-03T01:56:41;1.45;;;1.40;;
63112;SDS011;49206;48.020;21.378;2023-04-03T01:57:44;1.58;;;1.48;;
63112;SDS011;49206;48.020;21.378;2023-04-03T01:58:46;1.77;;;1.35;;
63112;SDS011;49206;48.020;21.378;2023-04-03T01:59:48;1.75;;;1.65;;
63112;SDS011;49206;48.020;21.378;2023-04-03T02:00:51;2.00;;;1.80;;
63112;SDS011;49206;48.020;21.378;2023-04-03T02:01:54;1.52;;;1.42;;
63112;SDS011;49206;48.020;21.378;2023-04-03T02:02:56;1.73;;;1.60;;
63112;SDS011;49206;48.020;21.378;2023-04-03T02:04:01;1.38;;;1.38;;
63112;SDS011;49206;48.020;21.378;2023-04-03T02:05:06;2.28;;;1.30;;
63112;SDS011;49206;48.020;21.378;2023-04-03T02:06:12;1.65;;;1.55;;
63112;SDS011;49206;48.020;21.378;2023-04-03T02:07:15;1.58;;;1.48;;
63112;SDS011;49206;48.020;21.378;2023-04-03T02:08:18;1.58;;;1.48;;
63112;SDS011;49206;48.020;21.378;2023-04-03T02:10:48;2.08;;;1.90;;
63112;SDS011;49206;48.020;21.378;2023-04-03T02:11:51;1.80;;;1.70;;
63112;SDS011;49206;48.020;21.378;2023-04-03T02:13:59;1.65;;;1.55;;
63112;SDS011;49206;48.020;21.378;2023-04-03T02:15:04;1.40;;;1.30;;
63112;SDS011;49206;48.020;21.378;2023-04-03T02:16:08;1.65;;;1.65;;
63112;SDS011;49206;48.020;21.378;2023-04-03T02:17:10;1.63;;;1.52;;
63112;SDS011;49206;48.020;21.378;2023-04-03T02:18:13;1.50;;;1.40;;
63112;SDS011;49206;48.020;21.378;2023-04-03T02:19:20;1.75;;;1.63;;
63112;SDS011;49206;48.020;21.378;2023-04-03T02:20:22;2.38;;;1.63;;
63112;SDS011;49206;48.020;21.378;2023-04-03T02:21:25;1.60;;;1.50;;
63112;SDS011;49206;48.020;21.378;2023-04-03T02:22:28;1.58;;;1.48;;
63112;SDS011;49206;48.020;21.378;2023-04-03T02:23:36;1.27;;;1.25;;
63112;SDS011;49206;48.020;21.378;2023-04-03T02:24:38;1.58;;;1.48;;
63112;SDS011;49206;48.020;21.378;2023-04-03T02:25:42;1.58;;;1.48;;
63112;SDS011;49206;48.020;21.378;2023-04-03T02:26:44;1.13;;;1.13;;
63112;SDS011;49206;48.020;21.378;2023-04-03T02:27:46;1.30;;;1.20;;
63112;SDS011;49206;48.020;21.378;2023-04-03T02:28:49;2.00;;;1.48;;
63112;SDS011;49206;48.020;21.378;2023-04-03T02:29:55;3.00;;;1.40;;
63112;SDS011;49206;48.020;21.378;2023-04-03T02:30:57;1.42;;;1.33;;
63112;SDS011;49206;48.020;21.378;2023-04-03T02:32:00;1.67;;;1.58;;
63112;SDS011;49206;48.020;21.378;2023-04-03T02:33:04;1.70;;;1.60;;
63112;SDS011;49206;48.020;21.378;2023-04-03T02:34:06;1.35;;;1.20;;
63112;SDS011;49206;48.020;21.378;2023-04-03T02:35:11;1.33;;;1.33;;
63112;SDS011;49206;48.020;21.378;2023-04-03T02:36:14;1.35;;;1.35;;
63112;SDS011;49206;48.020;21.378;2023-04-03T02:37:20;1.17;;;1.17;;
63112;SDS011;49206;48.020;21.378;2023-04-03T02:38:24;1.08;;;1.08;;
63112;SDS011;49206;48.020;21.378;2023-04-03T02:39:27;1.85;;;1.50;;
63112;SDS011;49206;48.020;21.378;2023-04-03T02:40:31;1.70;;;1.60;;
63112;SDS011;49206;48.020;21.378;2023-04-03T02:41:37;1.77;;;1.67;;
63112;SDS011;49206;48.020;21.378;2023-04-03T02:42:53;1.63;;;1.52;;
63112;SDS011;49206;48.020;21.378;2023-04-03T02:43:57;1.67;;;1.58;;
63112;SDS011;49206;48.020;21.378;2023-04-03T02:45:00;1.20;;;1.20;;
63112;SDS011;49206;48.020;21.378;2023-04-03T02:46:11;1.50;;;1.40;;
63112;SDS011;49206;48.020;21.378;2023-04-03T02:47:19;1.10;;;1.08;;
63112;SDS011;49206;48.020;21.378;2023-04-03T02:48:23;1.52;;;1.38;;
63112;SDS011;49206;48.020;21.378;2023-04-03T02:49:25;1.40;;;1.30;;
63112;SDS011;49206;48.020;21.378;2023-04-03T02:50:28;1.52;;;1.42;;
63112;SDS011;49206;48.020;21.378;2023-04-03T02:51:31;1.63;;;1.52;;
63112;SDS011;49206;48.020;21.378;2023-04-03T02:52:34;1.92;;;1.38;;
63112;SDS011;49206;48.020;21.378;2023-04-03T02:53:36;2.47;;;1.40;;
63112;SDS011;49206;48.020;21.378;2023-04-03T02:54:48;1.13;;;1.13;;
63112;SDS011;49206;48.020;21.378;2023-04-03T02:55:52;1.30;;;1.20;;
63112;SDS011;49206;48.020;21.378;2023-04-03T02:56:54;1.65;;;1.55;;
63112;SDS011;49206;48.020;21.378;2023-04-03T02:57:57;1.60;;;1.50;;
63112;SDS011;49206;48.020;21.378;2023-04-03T02:58:59;2.15;;;1.13;;
63112;SDS011;49206;48.020;21.378;2023-04-03T03:00:08;1.33;;;1.23;;
63112;SDS011;49206;48.020;21.378;2023-04-03T03:01:20;1.65;;;1.55;;
63112;SDS011;49206;48.020;21.378;2023-04-03T03:02:23;1.30;;;1.30;;
63112;SDS011;49206;48.020;21.378;2023-04-03T03:03:25;1.67;;;1.58;;
63112;SDS011;49206;48.020;21.378;2023-04-03T03:04:28;1.35;;;1.25;;
63112;SDS011;49206;48.020;21.378;2023-04-03T03:05:37;1.52;;;1.42;;
63112;SDS011;49206;48.020;21.378;2023-04-03T03:06:40;1.50;;;1.40;;
63112;SDS011;49206;48.020;21.378;2023-04-03T03:07:45;1.63;;;1.52;;
63112;SDS011;49206;48.020;21.378;2023-04-03T03:08:51;3.10;;;1.35;;
63112;SDS011;49206;48.020;21.378;2023-04-03T03:09:53;1.23;;;1.23;;
63112;SDS011;49206;48.020;21.378;2023-04-03T03:10:55;1.55;;;1.45;;
63112;SDS011;49206;48.020;21.378;2023-04-03T03:11:58;1.60;;;1.50;;
63112;SDS011;49206;48.020;21.378;2023-04-03T03:13:00;1.50;;;1.48;;
63112;SDS011;49206;48.020;21.378;2023-04-03T03:14:04;1.73;;;1.63;;
63112;SDS011;49206;48.020;21.378;2023-04-03T03:15:07;1.45;;;1.35;;
63112;SDS011;49206;48.020;21.378;2023-04-03T03:16:10;1.50;;;1.40;;
63112;SDS011;49206;48.020;21.378;2023-04-03T03:17:13;1.55;;;1.45;;
63112;SDS011;49206;48.020;21.378;2023-04-03T03:18:27;1.95;;;1.73;;
63112;SDS011;49206;48.020;21.378;2023-04-03T03:19:32;1.58;;;1.33;;
63112;SDS011;49206;48.020;21.378;2023-04-03T03:20:35;1.30;;;1.20;;
63112;SDS011;49206;48.020;21.378;2023-04-03T03:21:37;1.67;;;1.30;;
63112;SDS011;49206;48.020;21.378;2023-04-03T03:22:40;1.85;;;1.38;;
63112;SDS011;49206;48.020;21.378;2023-04-03T03:23:42;1.73;;;1.27;;
63112;SDS011;49206;48.020;21.378;2023-04-03T03:24:45;1.58;;;1.48;;
63112;SDS011;49206;48.020;21.378;2023-04-03T03:25:58;3.67;;;2.75;;
63112;SDS011;49206;48.020;21.378;2023-04-03T03:27:00;2.85;;;2.25;;
63112;SDS011;49206;48.020;21.378;2023-04-03T03:28:03;1.50;;;1.40;;
63112;SDS011;49206;48.020;21.378;2023-04-03T03:29:05;2.42;;;1.90;;
63112;SDS011;49206;48.020;21.378;2023-04-03T03:30:08;6.00;;;5.18;;
63112;SDS011;49206;48.020;21.378;2023-04-03T03:31:12;11.77;;;10.52;;
63112;SDS011;49206;48.020;21.378;2023-04-03T03:32:15;13.65;;;12.35;;
63112;SDS011;49206;48.020;21.378;2023-04-03T03:33:18;9.30;;;8.40;;
63112;SDS011;49206;48.020;21.378;2023-04-03T03:34:20;6.18;;;4.97;;
63112;SDS011;49206;48.020;21.378;2023-04-03T03:35:22;3.08;;;2.85;;
63112;SDS011;49206;48.020;21.378;2023-04-03T03:36:25;2.65;;;2.45;;
63112;SDS011;49206;48.020;21.378;2023-04-03T03:37:27;2.20;;;2.10;;
63112;SDS011;49206;48.020;21.378;2023-04-03T03:38:30;1.73;;;1.63;;
63112;SDS011;49206;48.020;21.378;2023-04-03T03:39:33;1.55;;;1.48;;
63112;SDS011;49206;48.020;21.378;2023-04-03T03:40:36;2.38;;;2.20;;
63112;SDS011;49206;48.020;21.378;2023-04-03T03:41:44;1.70;;;1.60;;
63112;SDS011;49206;48.020;21.378;2023-04-03T03:42:47;1.48;;;1.38;;
63112;SDS011;49206;48.020;21.378;2023-04-03T03:43:50;2.63;;;2.42;;
63112;SDS011;49206;48.020;21.378;2023-04-03T03:44:53;4.78;;;4.32;;
63112;SDS011;49206;48.020;21.378;2023-04-03T03:45:55;4.50;;;2.38;;
63112;SDS011;49206;48.020;21.378;2023-04-03T03:47:07;2.08;;;1.98;;
63112;SDS011;49206;48.020;21.378;2023-04-03T03:48:13;1.77;;;1.63;;
63112;SDS011;49206;48.020;21.378;2023-04-03T03:49:15;2.88;;;2.67;;
63112;SDS011;49206;48.020;21.378;2023-04-03T03:50:18;2.00;;;1.88;;
63112;SDS011;49206;48.020;21.378;2023-04-03T03:51:20;2.38;;;1.23;;
63112;SDS011;49206;48.020;21.378;2023-04-03T03:52:25;1.65;;;1.55;;
63112;SDS011;49206;48.020;21.378;2023-04-03T03:53:37;1.45;;;1.38;;
63112;SDS011;49206;48.020;21.378;2023-04-03T03:54:47;1.25;;;1.23;;
63112;SDS011;49206;48.020;21.378;2023-04-03T03:55:50;1.48;;;1.27;;
63112;SDS011;49206;48.020;21.378;2023-04-03T03:56:55;1.15;;;1.15;;
63112;SDS011;49206;48.020;21.378;2023-04-03T03:57:59;1.50;;;1.40;;
63112;SDS011;49206;48.020;21.378;2023-04-03T04:00:44;1.42;;;1.33;;
63112;SDS011;49206;48.020;21.378;2023-04-03T04:01:46;1.23;;;1.20;;
63112;SDS011;49206;48.020;21.378;2023-04-03T04:02:48;1.52;;;1.30;;
63112;SDS011;49206;48.020;21.378;2023-04-03T04:03:55;1.50;;;1.40;;
63112;SDS011;49206;48.020;21.378;2023-04-03T04:05:03;1.50;;;1.40;;
63112;SDS011;49206;48.020;21.378;2023-04-03T04:06:08;1.38;;;1.35;;
63112;SDS011;49206;48.020;21.378;2023-04-03T04:07:10;1.20;;;1.20;;
63112;SDS011;49206;48.020;21.378;2023-04-03T04:08:12;0.98;;;0.98;;
63112;SDS011;49206;48.020;21.378;2023-04-03T04:09:15;1.38;;;1.27;;
63112;SDS011;49206;48.020;21.378;2023-04-03T04:10:17;1.45;;;1.35;;
63112;SDS011;49206;48.020;21.378;2023-04-03T04:11:28;1.40;;;1.13;;
63112;SDS011;49206;48.020;21.378;2023-04-03T04:14:35;1.30;;;1.17;;
63112;SDS011;49206;48.020;21.378;2023-04-03T04:15:38;1.25;;;1.13;;
63112;SDS011;49206;48.020;21.378;2023-04-03T04:16:41;1.45;;;1.35;;
63112;SDS011;49206;48.020;21.378;2023-04-03T04:18:00;1.17;;;1.17;;
63112;SDS011;49206;48.020;21.378;2023-04-03T04:19:11;1.23;;;1.17;;
63112;SDS011;49206;48.020;21.378;2023-04-03T04:20:13;1.27;;;1.17;;
63112;SDS011;49206;48.020;21.378;2023-04-03T04:21:16;1.38;;;1.30;;
63112;SDS011;49206;48.020;21.378;2023-04-03T04:22:28;0.85;;;0.85;;
63112;SDS011;49206;48.020;21.378;2023-04-03T04:23:31;1.17;;;1.17;;
63112;SDS011;49206;48.020;21.378;2023-04-03T04:24:36;1.00;;;1.00;;
63112;SDS011;49206;48.020;21.378;2023-04-03T04:26:35;1.08;;;0.98;;
63112;SDS011;49206;48.020;21.378;2023-04-03T04:27:38;1.17;;;1.17;;
63112;SDS011;49206;48.020;21.378;2023-04-03T04:28:40;1.30;;;1.30;;
63112;SDS011;49206;48.020;21.378;2023-04-03T04:29:43;1.08;;;1.08;;
63112;SDS011;49206;48.020;21.378;2023-04-03T04:30:46;1.27;;;1.17;;
63112;SDS011;49206;48.020;21.378;2023-04-03T04:31:50;1.40;;;1.10;;
63112;SDS011;49206;48.020;21.378;2023-04-03T04:32:52;1.30;;;1.30;;
63112;SDS011;49206;48.020;21.378;2023-04-03T04:34:01;1.67;;;1.58;;
63112;SDS011;49206;48.020;21.378;2023-04-03T04:35:04;1.48;;;1.38;;
63112;SDS011;49206;48.020;21.378;2023-04-03T04:36:08;1.35;;;1.35;;
63112;SDS011;49206;48.020;21.378;2023-04-03T04:37:12;1.85;;;1.50;;
63112;SDS011;49206;48.020;21.378;2023-04-03T04:40:04;1.27;;;1.27;;
63112;SDS011;49206;48.020;21.378;2023-04-03T04:41:09;1.45;;;1.42;;
63112;SDS011;49206;48.020;21.378;2023-04-03T04:42:20;1.60;;;1.08;;
63112;SDS011;49206;48.020;21.378;2023-04-03T04:43:29;1.50;;;1.05;;
63112;SDS011;49206;48.020;21.378;2023-04-03T04:44:42;1.38;;;1.27;;
63112;SDS011;49206;48.020;21.378;2023-04-03T04:46:03;1.90;;;1.73;;
63112;SDS011;49206;48.020;21.378;2023-04-03T04:47:08;1.25;;;1.17;;
63112;SDS011;49206;48.020;21.378;2023-04-03T04:48:19;1.88;;;1.77;;
63112;SDS011;49206;48.020;21.378;2023-04-03T04:49:28;1.83;;;1.75;;
63112;SDS011;49206;48.020;21.378;2023-04-03T04:52:59;1.27;;;1.27;;
63112;SDS011;49206;48.020;21.378;2023-04-03T04:54:01;1.23;;;1.23;;
63112;SDS011;49206;48.020;21.378;2023-04-03T04:55:04;1.38;;;1.27;;
63112;SDS011;49206;48.020;21.378;2023-04-03T04:56:07;1.00;;;1.00;;
63112;SDS011;49206;48.020;21.378;2023-04-03T04:57:11;1.15;;;1.10;;
63112;SDS011;49206;48.020;21.378;2023-04-03T04:58:14;1.15;;;1.05;;
63112;SDS011;49206;48.020;21.378;2023-04-03T04:59:16;1.05;;;1.02;;
63112;SDS011;49206;48.020;21.378;2023-04-03T05:00:21;1.08;;;1.08;;
63112;SDS011;49206;48.020;21.378;2023-04-03T05:01:24;1.23;;;1.15;;
63112;SDS011;49206;48.020;21.378;2023-04-03T05:02:36;1.20;;;1.17;;
63112;SDS011;49206;48.020;21.378;2023-04-03T05:03:38;1.58;;;1.23;;
63112;SDS011;49206;48.020;21.378;2023-04-03T05:04:43;1.17;;;0.88;;
63112;SDS011;49206;48.020;21.378;2023-04-03T05:05:52;0.98;;;0.98;;
63112;SDS011;49206;48.020;21.378;2023-04-03T05:06:54;1.48;;;1.35;;
63112;SDS011;49206;48.020;21.378;2023-04-03T05:08:06;1.23;;;1.23;;
63112;SDS011;49206;48.020;21.378;2023-04-03T05:09:12;0.85;;;0.85;;
63112;SDS011;49206;48.020;21.378;2023-04-03T05:10:19;1.08;;;1.08;;
63112;SDS011;49206;48.020;21.378;2023-04-03T05:11:30;1.00;;;1.00;;
63112;SDS011;49206;48.020;21.378;2023-04-03T05:12:46;1.50;;;1.40;;
63112;SDS011;49206;48.020;21.378;2023-04-03T05:13:49;1.23;;;1.17;;
63112;SDS011;49206;48.020;21.378;2023-04-03T05:14:54;1.10;;;1.10;;
63112;SDS011;49206;48.020;21.378;2023-04-03T05:15:57;2.72;;;1.08;;
63112;SDS011;49206;48.020;21.378;2023-04-03T05:16:59;1.05;;;1.05;;
63112;SDS011;49206;48.020;21.378;2023-04-03T05:18:06;1.02;;;1.02;;
63112;SDS011;49206;48.020;21.378;2023-04-03T05:19:14;1.60;;;1.08;;
63112;SDS011;49206;48.020;21.378;2023-04-03T05:20:22;1.30;;;1.17;;
63112;SDS011;49206;48.020;21.378;2023-04-03T05:21:25;1.25;;;1.10;;
63112;SDS011;49206;48.020;21.378;2023-04-03T05:22:55;0.77;;;0.77;;
63112;SDS011;49206;48.020;21.378;2023-04-03T05:23:58;0.98;;;0.98;;
63112;SDS011;49206;48.020;21.378;2023-04-03T05:25:01;1.42;;;1.33;;
63112;SDS011;49206;48.020;21.378;2023-04-03T05:26:04;1.10;;;0.98;;
63112;SDS011;49206;48.020;21.378;2023-04-03T05:27:07;1.00;;;0.98;;
63112;SDS011;49206;48.020;21.378;2023-04-03T05:28:17;1.48;;;1.27;;
63112;SDS011;49206;48.020;21.378;2023-04-03T05:29:21;1.67;;;1.58;;
63112;SDS011;49206;48.020;21.378;2023-04-03T05:30:24;1.30;;;1.17;;
63112;SDS011;49206;48.020;21.378;2023-04-03T05:31:33;1.40;;;1.38;;
63112;SDS011;49206;48.020;21.378;2023-04-03T05:32:46;2.03;;;1.20;;
63112;SDS011;49206;48.020;21.378;2023-04-03T05:34:12;1.60;;;1.05;;
63112;SDS011;49206;48.020;21.378;2023-04-03T05:35:16;1.15;;;1.13;;
63112;SDS011;49206;48.020;21.378;2023-04-03T05:37:54;1.45;;;1.35;;
63112;SDS011;49206;48.020;21.378;2023-04-03T05:38:58;1.05;;;1.05;;
63112;SDS011;49206;48.020;21.378;2023-04-03T05:41:30;0.90;;;0.90;;
63112;SDS011;49206;48.020;21.378;2023-04-03T05:42:32;1.02;;;1.00;;
63112;SDS011;49206;48.020;21.378;2023-04-03T05:43:35;1.48;;;1.38;;
63112;SDS011;49206;48.020;21.378;2023-04-03T05:44:41;2.08;;;1.08;;
63112;SDS011;49206;48.020;21.378;2023-04-03T05:45:43;1.27;;;1.13;;
63112;SDS011;49206;48.020;21.378;2023-04-03T05:46:48;1.20;;;1.20;;
63112;SDS011;49206;48.020;21.378;2023-04-03T05:48:16;1.35;;;1.35;;
63112;SDS011;49206;48.020;21.378;2023-04-03T05:49:19;0.90;;;0.90;;
63112;SDS011;49206;48.020;21.378;2023-04-03T05:50:21;0.77;;;0.77;;
63112;SDS011;49206;48.020;21.378;2023-04-03T05:51:30;1.08;;;1.08;;
63112;SDS011;49206;48.020;21.378;2023-04-03T05:52:40;0.95;;;0.77;;
63112;SDS011;49206;48.020;21.378;2023-04-03T05:53:46;0.98;;;0.98;;
63112;SDS011;49206;48.020;21.378;2023-04-03T05:54:52;1.08;;;1.08;;
63112;SDS011;49206;48.020;21.378;2023-04-03T05:55:59;0.82;;;0.82;;
63112;SDS011;49206;48.020;21.378;2023-04-03T05:57:11;2.13;;;0.90;;
63112;SDS011;49206;48.020;21.378;2023-04-03T05:58:15;0.73;;;0.73;;
63112;SDS011;49206;48.020;21.378;2023-04-03T05:59:26;1.08;;;1.08;;
63112;SDS011;49206;48.020;21.378;2023-04-03T06:00:31;0.95;;;0.95;;
63112;SDS011;49206;48.020;21.378;2023-04-03T06:01:42;1.20;;;1.10;;
63112;SDS011;49206;48.020;21.378;2023-04-03T06:02:45;1.95;;;1.48;;
63112;SDS011;49206;48.020;21.378;2023-04-03T06:03:56;1.08;;;1.08;;
63112;SDS011;49206;48.020;21.378;2023-04-03T06:05:01;1.00;;;0.98;;
63112;SDS011;49206;48.020;21.378;2023-04-03T06:06:04;0.75;;;0.75;;
63112;SDS011;49206;48.020;21.378;2023-04-03T06:08:36;1.13;;;1.10;;
63112;SDS011;49206;48.020;21.378;2023-04-03T06:10:24;1.02;;;1.02;;
63112;SDS011;49206;48.020;21.378;2023-04-03T06:11:33;1.10;;;1.10;;
63112;SDS011;49206;48.020;21.378;2023-04-03T06:12:47;1.13;;;1.13;;
63112;SDS011;49206;48.020;21.378;2023-04-03T06:13:49;0.93;;;0.93;;
63112;SDS011;49206;48.020;21.378;2023-04-03T06:14:52;1.08;;;1.08;;
63112;SDS011;49206;48.020;21.378;2023-04-03T06:16:04;1.05;;;0.98;;
63112;SDS011;49206;48.020;21.378;2023-04-03T06:17:15;1.30;;;1.20;;
63112;SDS011;49206;48.020;21.378;2023-04-03T06:18:18;1.40;;;1.30;;
63112;SDS011;49206;48.020;21.378;2023-04-03T06:19:20;2.30;;;1.08;;
63112;SDS011;49206;48.020;21.378;2023-04-03T06:20:26;1.23;;;1.13;;
63112;SDS011;49206;48.020;21.378;2023-04-03T06:21:28;2.28;;;1.13;;
63112;SDS011;49206;48.020;21.378;2023-04-03T06:22:40;1.45;;;1.35;;
63112;SDS011;49206;48.020;21.378;2023-04-03T06:23:45;1.35;;;1.20;;
63112;SDS011;49206;48.020;21.378;2023-04-03T06:24:57;1.40;;;1.27;;
63112;SDS011;49206;48.020;21.378;2023-04-03T06:26:08;1.63;;;1.08;;
63112;SDS011;49206;48.020;21.378;2023-04-03T06:27:11;0.98;;;0.98;;
63112;SDS011;49206;48.020;21.378;2023-04-03T06:29:35;1.25;;;1.15;;
63112;SDS011;49206;48.020;21.378;2023-04-03T06:30:47;1.58;;;1.48;;
63112;SDS011;49206;48.020;21.378;2023-04-03T06:31:50;1.45;;;1.38;;
63112;SDS011;49206;48.020;21.378;2023-04-03T06:33:21;1.40;;;1.40;;
63112;SDS011;49206;48.020;21.378;2023-04-03T06:34:24;1.50;;;1.40;;
63112;SDS011;49206;48.020;21.378;2023-04-03T06:35:29;1.10;;;1.10;;
63112;SDS011;49206;48.020;21.378;2023-04-03T06:36:32;1.40;;;1.35;;
63112;SDS011;49206;48.020;21.378;2023-04-03T06:37:34;2.92;;;1.17;;
63112;SDS011;49206;48.020;21.378;2023-04-03T06:38:37;1.10;;;1.10;;
63112;SDS011;49206;48.020;21.378;2023-04-03T06:39:50;1.48;;;1.38;;
63112;SDS011;49206;48.020;21.378;2023-04-03T06:40:52;1.33;;;1.23;;
63112;SDS011;49206;48.020;21.378;2023-04-03T06:41:56;1.85;;;0.98;;
63112;SDS011;49206;48.020;21.378;2023-04-03T06:43:40;1.13;;;1.13;;
63112;SDS011;49206;48.020;21.378;2023-04-03T06:44:45;1.05;;;1.05;;
63112;SDS011;49206;48.020;21.378;2023-04-03T06:45:47;1.20;;;1.20;;
63112;SDS011;49206;48.020;21.378;2023-04-03T06:46:49;1.10;;;1.10;;
63112;SDS011;49206;48.020;21.378;2023-04-03T06:47:57;1.38;;;1.27;;
63112;SDS011;49206;48.020;21.378;2023-04-03T06:49:02;0.98;;;0.98;;
63112;SDS011;49206;48.020;21.378;2023-04-03T06:50:05;1.25;;;1.20;;